Time;durP1;ratioP1;P1;durP2;ratioP2;P2;SDS_P1;SDS_P2;PMS_P1;PMS_P2;Temp;Humidity;BMP_temperature;BMP_pressure;BME280_temperature;BME280_humidity;BME280_pressure;Samples;Min_cycle;Max_cycle;Signal;HPM_P1;HPM_P2
2021/07/15 00:00:08;;;;;;;9.67;8.97;;;22.30;99.90;;;;;;5052217;28;20440;-54
2021/07/15 00:02:35;;;;;;;10.87;9.93;;;22.10;99.90;;;;;;5052206;28;20435;-53
2021/07/15 00:05:06;;;;;;;10.80;10.00;;;22.10;99.90;;;;;;5052270;28;20479;-54
2021/07/15 00:07:33;;;;;;;9.63;8.83;;;22.10;99.90;;;;;;5052439;28;20456;-54
2021/07/15 00:09:59;;;;;;;10.03;9.23;;;22.00;99.90;;;;;;5052131;28;20439;-54
2021/07/15 00:12:26;;;;;;;12.67;9.80;;;21.90;99.90;;;;;;5052392;28;20438;-53
2021/07/15 00:14:53;;;;;;;9.53;8.83;;;22.20;99.90;;;;;;5052434;28;20442;-53
2021/07/15 00:17:19;;;;;;;10.30;9.50;;;21.90;99.90;;;;;;5052172;28;20447;-54
2021/07/15 00:19:46;;;;;;;10.47;9.57;;;21.90;99.90;;;;;;5051876;28;20450;-54
2021/07/15 00:22:14;;;;;;;10.57;9.63;;;21.90;99.90;;;;;;5052366;28;20450;-54
2021/07/15 00:24:40;;;;;;;10.50;9.60;;;21.80;99.90;;;;;;5052048;28;20481;-53
2021/07/15 00:27:07;;;;;;;9.20;8.40;;;21.80;99.90;;;;;;5052175;28;20443;-54
2021/07/15 00:29:33;;;;;;;9.87;9.17;;;21.80;99.90;;;;;;5051726;28;20442;-54
2021/07/15 00:32:00;;;;;;;9.53;8.73;;;21.80;99.90;;;;;;5051900;28;20458;-53
2021/07/15 00:34:26;;;;;;;9.23;8.50;;;21.70;99.90;;;;;;5052125;28;20457;-53
2021/07/15 00:36:53;;;;;;;9.83;8.93;;;21.70;99.90;;;;;;5052060;28;20503;-53
2021/07/15 00:39:21;;;;;;;10.67;9.70;;;21.70;99.90;;;;;;5051594;28;20443;-54
2021/07/15 00:41:47;;;;;;;9.63;8.83;;;21.90;99.90;;;;;;5052098;28;20437;-54
2021/07/15 00:44:14;;;;;;;10.07;9.07;;;21.70;99.90;;;;;;5051836;28;20513;-54
2021/07/15 00:46:40;;;;;;;8.40;7.70;;;21.70;99.90;;;;;;5051816;28;20490;-54
2021/07/15 00:49:07;;;;;;;9.10;8.40;;;21.70;99.90;;;;;;5051497;28;20810;-54
2021/07/15 00:51:34;;;;;;;13.33;9.97;;;21.60;99.90;;;;;;5051754;28;20923;-54
2021/07/15 00:54:01;;;;;;;9.10;8.30;;;21.60;99.90;;;;;;5050961;28;20457;-53
2021/07/15 00:56:29;;;;;;;10.13;9.17;;;21.60;99.90;;;;;;5051706;28;20445;-54
2021/07/15 00:58:56;;;;;;;9.60;8.80;;;21.60;99.90;;;;;;5051007;28;20516;-53
2021/07/15 01:01:22;;;;;;;10.50;9.60;;;21.50;99.90;;;;;;5051500;28;20442;-54
2021/07/15 01:03:51;;;;;;;10.63;9.37;;;21.50;99.90;;;;;;5051237;28;20434;-54
2021/07/15 01:06:18;;;;;;;9.93;9.20;;;21.50;99.90;;;;;;5051502;28;20998;-54
2021/07/15 01:08:45;;;;;;;9.57;8.80;;;21.50;99.90;;;;;;5050945;28;20548;-54
2021/07/15 01:11:21;;;;;;;9.13;8.43;;;21.50;99.90;;;;;;5051525;28;20450;-54
2021/07/15 01:13:51;;;;;;;9.60;8.70;;;21.50;99.90;;;;;;5051306;28;20823;-54
2021/07/15 01:16:23;;;;;;;8.33;7.67;;;21.40;99.90;;;;;;5051384;28;20441;-54
2021/07/15 01:19:15;;;;;;;8.80;8.10;;;21.40;99.90;;;;;;5050981;28;20458;-54
2021/07/15 01:22:09;;;;;;;8.87;8.10;;;21.40;99.90;;;;;;5045991;28;20839;-53
2021/07/15 01:25:25;;;;;;;8.77;7.90;;;21.40;99.90;;;;;;5051184;28;20434;-53
2021/07/15 01:28:05;;;;;;;9.13;8.33;;;21.40;99.90;;;;;;5051140;28;20449;-54
2021/07/15 01:30:35;;;;;;;8.47;7.67;;;21.30;99.90;;;;;;5051226;28;20521;-53
2021/07/15 01:33:15;;;;;;;8.70;7.67;;;21.30;99.90;;;;;;5051362;28;20822;-54
2021/07/15 01:35:46;;;;;;;9.00;8.10;;;21.20;99.90;;;;;;5051163;28;20995;-53
2021/07/15 01:38:14;;;;;;;8.60;7.67;;;21.10;99.90;;;;;;5050740;28;20466;-53
2021/07/15 01:40:44;;;;;;;8.60;7.70;;;21.30;99.90;;;;;;5051019;28;20487;-54
2021/07/15 01:43:15;;;;;;;7.63;7.03;;;21.00;99.90;;;;;;5051060;28;20433;-54
2021/07/15 01:45:44;;;;;;;6.77;6.17;;;21.30;99.90;;;;;;5051054;28;20485;-53
2021/07/15 01:48:12;;;;;;;6.70;6.10;;;21.10;99.90;;;;;;5050488;28;20462;-54
2021/07/15 01:50:40;;;;;;;7.03;6.40;;;21.10;99.90;;;;;;5050906;28;20476;-53
2021/07/15 01:53:08;;;;;;;6.33;5.80;;;21.30;99.90;;;;;;5033170;28;20505;-54
2021/07/15 01:55:35;;;;;;;6.60;5.97;;;21.30;99.90;;;;;;5050878;28;20800;-53
2021/07/15 01:58:02;;;;;;;6.40;5.90;;;21.40;99.90;;;;;;5050355;28;20974;-53
2021/07/15 02:00:30;;;;;;;6.67;6.07;;;20.90;99.90;;;;;;5050799;28;20783;-54
2021/07/15 02:02:59;;;;;;;7.43;6.83;;;21.00;99.90;;;;;;5049787;28;20506;-53
2021/07/15 02:05:27;;;;;;;6.60;5.57;;;21.30;99.90;;;;;;5053394;28;20557;-54
2021/07/15 02:07:56;;;;;;;5.80;5.37;;;21.00;99.90;;;;;;5054632;28;20534;-54
2021/07/15 02:10:27;;;;;;;7.53;5.50;;;21.00;99.90;;;;;;5054365;28;20441;-53
2021/07/15 02:12:54;;;;;;;5.63;5.13;;;21.00;99.90;;;;;;5054876;28;20432;-54
2021/07/15 02:15:22;;;;;;;5.57;5.07;;;20.90;99.90;;;;;;5054741;28;20460;-54
2021/07/15 02:17:50;;;;;;;5.90;5.40;;;20.90;99.90;;;;;;5054611;28;20490;-53
2021/07/15 02:20:20;;;;;;;5.20;4.80;;;21.10;99.90;;;;;;5054069;28;20439;-54
2021/07/15 02:22:47;;;;;;;5.17;4.77;;;20.90;99.90;;;;;;5054767;28;20436;-53
2021/07/15 02:25:16;;;;;;;5.83;4.77;;;20.80;99.90;;;;;;5054315;28;20448;-54
2021/07/15 02:27:45;;;;;;;7.60;5.27;;;21.10;99.90;;;;;;5054554;28;20465;-54
2021/07/15 02:30:16;;;;;;;5.87;5.27;;;20.80;99.90;;;;;;5054031;28;20531;-54
2021/07/15 02:32:47;;;;;;;6.93;5.30;;;20.80;99.90;;;;;;5054403;28;20445;-53
2021/07/15 02:35:18;;;;;;;6.20;5.70;;;20.60;99.90;;;;;;5054402;28;20497;-53
2021/07/15 02:37:47;;;;;;;6.60;5.90;;;20.80;99.90;;;;;;5054205;28;20550;-54
2021/07/15 02:40:17;;;;;;;10.23;5.97;;;20.80;99.90;;;;;;5053968;28;20679;-54
2021/07/15 02:42:45;;;;;;;6.37;5.87;;;20.80;99.90;;;;;;5054316;28;20436;-54
2021/07/15 02:45:14;;;;;;;10.03;7.23;;;20.80;99.90;;;;;;5053896;28;20444;-53
2021/07/15 02:47:42;;;;;;;7.60;6.90;;;20.70;99.90;;;;;;5036081;28;20468;-53
2021/07/15 02:50:10;;;;;;;8.20;7.30;;;20.70;99.90;;;;;;5053701;28;20495;-53
2021/07/15 02:52:39;;;;;;;6.67;5.80;;;20.70;99.90;;;;;;5053942;28;20432;-53
2021/07/15 02:55:07;;;;;;;8.50;7.70;;;20.70;99.90;;;;;;5054035;28;20440;-53
2021/07/15 02:57:43;;;;;;;7.80;7.00;;;20.60;99.90;;;;;;5053796;28;20456;-53
2021/07/15 03:00:13;;;;;;;8.30;6.17;;;20.60;99.90;;;;;;5053760;28;20440;-54
2021/07/15 03:02:47;;;;;;;7.37;6.77;;;20.60;99.90;;;;;;5053832;28;20435;-53
2021/07/15 03:05:18;;;;;;;7.97;7.27;;;20.90;99.90;;;;;;5053834;28;20435;-53
2021/07/15 03:07:50;;;;;;;7.00;6.40;;;20.50;99.90;;;;;;5053626;28;20577;-53
2021/07/15 03:10:18;;;;;;;8.10;7.40;;;20.40;99.90;;;;;;5053289;28;20448;-53
2021/07/15 03:12:45;;;;;;;7.70;6.80;;;20.50;99.90;;;;;;5053772;28;20438;-53
2021/07/15 03:15:13;;;;;;;6.87;5.93;;;20.50;99.90;;;;;;5035229;28;20490;-53
2021/07/15 03:17:44;;;;;;;7.03;6.50;;;20.30;99.90;;;;;;5053133;28;20459;-53
2021/07/15 03:20:14;;;;;;;7.83;7.13;;;20.50;99.90;;;;;;5053290;28;20443;-53
2021/07/15 03:22:42;;;;;;;7.50;6.90;;;20.60;99.90;;;;;;5053334;28;20437;-53
2021/07/15 03:25:16;;;;;;;8.83;7.83;;;20.70;99.90;;;;;;5053292;28;20443;-53
2021/07/15 03:27:46;;;;;;;7.23;6.53;;;20.30;99.90;;;;;;5053437;28;20500;-54
2021/07/15 03:30:15;;;;;;;10.83;6.97;;;20.30;99.90;;;;;;5052957;28;20444;-53
2021/07/15 03:32:44;;;;;;;7.80;6.97;;;20.40;99.90;;;;;;5053382;28;20443;-53
2021/07/15 03:35:12;;;;;;;6.67;6.17;;;20.40;99.90;;;;;;5052852;28;21004;-53
2021/07/15 03:37:41;;;;;;;10.83;7.97;;;20.40;99.90;;;;;;5052836;28;20559;-53
2021/07/15 03:40:09;;;;;;;7.20;6.50;;;20.10;99.90;;;;;;5034649;28;20808;-53
2021/07/15 03:42:38;;;;;;;7.17;6.53;;;20.40;99.90;;;;;;5052875;28;20438;-53
2021/07/15 03:45:06;;;;;;;8.10;7.33;;;20.30;99.90;;;;;;5052735;28;20712;-53
2021/07/15 03:47:33;;;;;;;6.73;6.10;;;20.40;99.90;;;;;;5052608;28;20487;-53
2021/07/15 03:50:01;;;;;;;7.80;7.10;;;20.30;99.90;;;;;;5052355;28;20830;-53
2021/07/15 03:52:28;;;;;;;9.00;6.10;;;20.50;99.90;;;;;;5052730;28;20517;-53
2021/07/15 03:54:56;;;;;;;9.20;6.43;;;20.50;99.90;;;;;;5052860;28;20438;-54
2021/07/15 03:57:26;;;;;;;9.43;6.80;;;20.40;99.90;;;;;;5052696;28;20464;-54
2021/07/15 03:59:55;;;;;;;7.23;6.53;;;20.40;99.90;;;;;;5052095;28;20448;-53
2021/07/15 04:02:26;;;;;;;7.00;6.30;;;20.40;99.90;;;;;;5052676;28;20563;-54
2021/07/15 04:04:55;;;;;;;6.73;6.13;;;20.40;99.90;;;;;;5052538;28;20485;-53
2021/07/15 04:07:25;;;;;;;6.53;5.93;;;20.30;99.90;;;;;;5052617;28;20932;-53
2021/07/15 04:09:53;;;;;;;8.10;6.97;;;20.50;99.90;;;;;;5052273;28;20435;-53
2021/07/15 04:12:22;;;;;;;8.47;7.13;;;20.30;99.90;;;;;;5052236;28;20448;-53
2021/07/15 04:15:07;;;;;;;8.70;7.90;;;20.30;99.90;;;;;;5052435;28;20435;-53
2021/07/15 04:17:37;;;;;;;7.93;7.23;;;20.30;99.90;;;;;;5052066;28;20452;-53
2021/07/15 04:20:06;;;;;;;8.00;7.27;;;20.30;99.90;;;;;;5051961;28;20436;-53
2021/07/15 04:22:33;;;;;;;7.13;6.53;;;20.30;99.90;;;;;;5051990;28;20480;-53
2021/07/15 04:25:01;;;;;;;8.20;7.40;;;20.50;99.90;;;;;;5052133;28;20435;-53
2021/07/15 04:27:28;;;;;;;7.80;7.10;;;20.20;99.90;;;;;;5050633;28;20488;-53
2021/07/15 04:30:02;;;;;;;7.77;7.10;;;20.40;99.90;;;;;;5052010;28;20436;-53
2021/07/15 04:32:34;;;;;;;9.40;7.90;;;20.40;99.90;;;;;;5052115;28;20572;-53
2021/07/15 04:35:01;;;;;;;8.43;7.70;;;20.40;99.90;;;;;;5052147;28;20436;-53
2021/07/15 04:37:28;;;;;;;7.63;6.93;;;20.40;99.90;;;;;;5051567;28;20448;-53
2021/07/15 04:39:55;;;;;;;8.37;7.60;;;20.90;99.90;;;;;;5051440;28;20436;-53
2021/07/15 04:42:23;;;;;;;7.27;6.67;;;20.30;99.90;;;;;;5051671;28;20436;-54
2021/07/15 04:44:50;;;;;;;7.47;6.87;;;20.80;99.90;;;;;;5051638;28;20451;-53
2021/07/15 04:47:21;;;;;;;8.17;7.37;;;20.50;99.90;;;;;;5033430;28;20553;-53
2021/07/15 04:49:49;;;;;;;7.30;6.67;;;20.60;99.90;;;;;;5051273;28;20490;-53
2021/07/15 04:52:18;;;;;;;7.67;6.70;;;20.80;99.90;;;;;;5051574;28;20440;-53
2021/07/15 04:54:46;;;;;;;7.57;6.93;;;20.80;99.90;;;;;;5051541;28;20526;-53
2021/07/15 04:57:13;;;;;;;7.13;6.43;;;20.60;99.90;;;;;;5051943;28;20439;-56
2021/07/15 04:59:40;;;;;;;9.60;6.27;;;20.70;99.90;;;;;;5051201;28;20925;-55
2021/07/15 05:02:07;;;;;;;6.03;5.50;;;20.70;99.90;;;;;;5051159;28;20435;-53
2021/07/15 05:04:34;;;;;;;7.70;5.60;;;20.70;99.90;;;;;;5050826;28;20498;-55
2021/07/15 05:07:02;;;;;;;8.50;4.93;;;20.70;99.90;;;;;;5050457;28;20479;-56
2021/07/15 05:09:29;;;;;;;7.00;5.00;;;20.50;99.90;;;;;;5050341;28;20447;-55
2021/07/15 05:11:56;;;;;;;5.23;4.40;;;20.70;99.90;;;;;;5050439;28;20456;-55
2021/07/15 05:14:22;;;;;;;4.80;4.17;;;20.80;99.90;;;;;;5050329;28;20526;-54
2021/07/15 05:16:49;;;;;;;4.07;3.77;;;20.80;99.90;;;;;;5050421;28;20427;-54
2021/07/15 05:19:16;;;;;;;4.80;4.40;;;20.90;99.90;;;;;;5049848;28;20992;-53
2021/07/15 05:21:42;;;;;;;5.67;4.17;;;20.90;99.90;;;;;;5050502;28;20447;-53
2021/07/15 05:24:10;;;;;;;6.70;4.70;;;21.00;99.90;;;;;;5050314;28;20954;-54
2021/07/15 05:26:37;;;;;;;8.17;7.40;;;21.10;99.90;;;;;;5050513;28;20476;-53
2021/07/15 05:29:04;;;;;;;4.70;4.20;;;21.10;99.90;;;;;;5050133;28;20457;-54
2021/07/15 05:31:30;;;;;;;7.80;5.03;;;21.10;99.90;;;;;;5050580;28;20433;-54
2021/07/15 05:33:57;;;;;;;6.93;4.33;;;21.20;99.90;;;;;;5049948;28;20444;-54
2021/07/15 05:36:24;;;;;;;4.93;3.80;;;21.20;99.90;;;;;;5050117;28;20440;-54
2021/07/15 05:38:50;;;;;;;3.97;3.33;;;21.30;99.90;;;;;;5049594;28;20465;-54
2021/07/15 05:41:18;;;;;;;4.63;3.63;;;21.30;99.90;;;;;;5050237;28;20441;-55
2021/07/15 05:43:45;;;;;;;4.37;3.40;;;21.40;99.90;;;;;;5050008;28;20789;-54
2021/07/15 05:46:11;;;;;;;4.20;3.77;;;21.40;99.90;;;;;;5049745;28;20450;-55
2021/07/15 05:48:38;;;;;;;4.10;3.70;;;21.50;99.90;;;;;;5049656;28;20501;-54
2021/07/15 05:51:04;;;;;;;3.20;2.83;;;21.50;99.90;;;;;;5050070;28;20445;-56
2021/07/15 05:53:31;;;;;;;4.80;3.20;;;21.60;99.90;;;;;;5050053;28;20430;-55
2021/07/15 05:55:58;;;;;;;3.60;2.93;;;21.40;99.90;;;;;;5050438;28;20792;-56
2021/07/15 05:58:26;;;;;;;7.10;3.80;;;21.60;99.90;;;;;;5050161;28;20459;-55
2021/07/15 06:00:53;;;;;;;4.17;3.50;;;21.70;99.90;;;;;;5050462;28;20433;-54
2021/07/15 06:03:19;;;;;;;8.20;3.90;;;21.80;99.90;;;;;;5050472;28;20434;-55
2021/07/15 06:05:46;;;;;;;5.70;3.57;;;21.90;99.90;;;;;;5050656;28;20968;-56
2021/07/15 06:08:12;;;;;;;5.10;3.57;;;22.00;99.90;;;;;;5049972;28;20490;-54
2021/07/15 06:10:39;;;;;;;4.00;3.70;;;22.10;99.90;;;;;;5050958;28;20426;-55
2021/07/15 06:13:06;;;;;;;3.50;3.20;;;22.40;99.90;;;;;;5050423;28;20442;-56
2021/07/15 06:15:34;;;;;;;3.53;3.20;;;22.60;99.90;;;;;;5050123;28;20935;-54
2021/07/15 06:18:01;;;;;;;5.30;3.23;;;22.80;99.90;;;;;;5050244;28;20513;-54
2021/07/15 06:20:28;;;;;;;3.27;2.97;;;23.00;99.90;;;;;;5050422;28;20433;-55
2021/07/15 06:22:55;;;;;;;3.53;3.23;;;23.00;99.90;;;;;;5050305;28;20501;-54
2021/07/15 06:25:23;;;;;;;3.50;3.20;;;23.10;99.90;;;;;;5050337;28;20436;-56
2021/07/15 06:27:49;;;;;;;7.17;3.83;;;23.10;99.90;;;;;;5050189;28;20487;-55
2021/07/15 06:30:16;;;;;;;3.63;3.33;;;23.10;99.90;;;;;;5049486;28;20433;-61
2021/07/15 06:32:44;;;;;;;3.27;2.97;;;23.00;99.90;;;;;;5050120;28;20447;-55
2021/07/15 06:35:14;;;;;;;10.53;2.77;;;23.10;99.90;;;;;;5050067;28;20445;-55
2021/07/15 06:37:41;;;;;;;2.93;2.53;;;23.20;99.90;;;;;;5049787;28;20459;-54
2021/07/15 06:40:10;;;;;;;3.90;3.43;;;23.20;99.90;;;;;;5050026;28;20808;-55
2021/07/15 06:42:36;;;;;;;3.03;2.73;;;23.40;99.90;;;;;;5050046;28;20460;-55
2021/07/15 06:45:06;;;;;;;2.97;2.70;;;23.40;99.90;;;;;;5049779;28;20440;-53
2021/07/15 06:47:33;;;;;;;5.43;3.20;;;23.60;99.90;;;;;;5049073;28;20488;-55
2021/07/15 06:50:01;;;;;;;2.60;2.40;;;23.60;99.90;;;;;;5049531;28;20465;-55
2021/07/15 06:52:29;;;;;;;4.63;2.50;;;23.70;99.90;;;;;;5053424;28;20436;-55
2021/07/15 06:55:00;;;;;;;5.40;3.17;;;23.70;99.90;;;;;;5035597;28;20662;-54
2021/07/15 06:57:27;;;;;;;3.60;2.67;;;23.70;99.90;;;;;;5053182;28;20447;-55
2021/07/15 06:59:53;;;;;;;3.57;2.50;;;23.70;99.90;;;;;;5053175;28;20444;-55
2021/07/15 07:02:20;;;;;;;3.23;2.60;;;23.70;99.90;;;;;;5053630;28;21025;-55
2021/07/15 07:04:47;;;;;;;6.00;2.87;;;23.70;99.90;;;;;;5053658;28;20783;-56
2021/07/15 07:07:15;;;;;;;2.90;2.60;;;23.70;99.90;;;;;;5052350;28;20561;-55
2021/07/15 07:09:41;;;;;;;3.50;2.57;;;23.70;99.90;;;;;;5034364;28;20466;-55
2021/07/15 07:12:08;;;;;;;3.00;2.57;;;23.70;99.90;;;;;;5052996;28;20925;-55
2021/07/15 07:14:35;;;;;;;3.20;2.23;;;23.60;99.90;;;;;;5053140;28;21020;-55
2021/07/15 07:17:02;;;;;;;2.10;1.90;;;23.60;99.90;;;;;;5052796;28;20435;-56
2021/07/15 07:19:28;;;;;;;3.87;2.73;;;23.70;99.90;;;;;;5052859;28;20438;-56
2021/07/15 07:21:55;;;;;;;4.03;2.67;;;23.70;99.90;;;;;;5034961;28;20472;-56
2021/07/15 07:24:23;;;;;;;3.40;2.50;;;23.70;99.90;;;;;;5052589;28;20434;-56
2021/07/15 07:26:50;;;;;;;3.13;2.90;;;23.80;99.90;;;;;;5053048;28;20437;-56
2021/07/15 07:29:16;;;;;;;6.40;2.37;;;23.90;99.90;;;;;;5052397;28;20454;-56
2021/07/15 07:31:43;;;;;;;3.10;2.20;;;23.90;99.90;;;;;;5052883;28;20443;-55
2021/07/15 07:34:10;;;;;;;4.50;2.20;;;24.10;99.90;;;;;;5052746;28;20927;-54
2021/07/15 07:36:37;;;;;;;2.93;2.13;;;24.10;99.90;;;;;;5052745;28;20441;-55
2021/07/15 07:39:04;;;;;;;3.97;2.40;;;24.10;99.90;;;;;;5052122;28;20463;-55
2021/07/15 07:41:32;;;;;;;8.83;2.43;;;24.10;99.90;;;;;;5052842;28;20437;-54
2021/07/15 07:43:59;;;;;;;3.77;2.47;;;24.20;99.90;;;;;;5034439;28;20457;-55
2021/07/15 07:46:26;;;;;;;3.57;2.07;;;24.20;99.90;;;;;;5052396;28;20457;-55
2021/07/15 07:48:52;;;;;;;5.03;2.70;;;24.20;99.90;;;;;;5052008;28;20518;-54
2021/07/15 07:51:19;;;;;;;5.53;2.50;;;24.10;99.90;;;;;;5052505;28;20795;-56
2021/07/15 07:53:46;;;;;;;3.93;2.20;;;24.20;99.90;;;;;;5034627;28;20471;-56
2021/07/15 07:56:13;;;;;;;2.63;2.20;;;24.20;99.90;;;;;;5052417;28;20433;-53
2021/07/15 07:58:41;;;;;;;3.80;2.37;;;24.20;99.90;;;;;;5051869;28;20788;-56
2021/07/15 08:01:08;;;;;;;4.47;2.17;;;24.30;99.90;;;;;;5052079;28;20431;-55
2021/07/15 08:03:35;;;;;;;3.97;2.00;;;24.30;99.90;;;;;;5051722;28;20450;-55
2021/07/15 08:06:02;;;;;;;1.93;1.73;;;24.40;99.90;;;;;;5033696;28;20461;-55
2021/07/15 08:08:29;;;;;;;3.13;2.70;;;24.40;99.90;;;;;;5033604;28;20493;-56
2021/07/15 08:10:56;;;;;;;3.53;2.10;;;24.50;99.80;;;;;;5052067;28;20533;-56
2021/07/15 08:13:22;;;;;;;3.10;2.20;;;24.50;99.70;;;;;;5051887;28;20445;-55
2021/07/15 08:15:50;;;;;;;3.70;2.10;;;24.40;99.60;;;;;;5052183;28;20464;-54
2021/07/15 08:18:17;;;;;;;4.13;2.93;;;24.50;99.80;;;;;;5051727;28;20462;-55
2021/07/15 08:20:44;;;;;;;2.77;2.47;;;24.50;99.80;;;;;;5052088;28;20439;-56
2021/07/15 08:23:11;;;;;;;4.93;2.47;;;24.50;99.70;;;;;;5051972;28;20430;-56
2021/07/15 08:25:38;;;;;;;3.00;2.57;;;24.50;99.70;;;;;;5052006;28;20434;-55
2021/07/15 08:28:05;;;;;;;3.60;2.40;;;24.40;99.70;;;;;;5051337;28;20482;-55
2021/07/15 08:30:31;;;;;;;6.40;2.77;;;24.40;99.80;;;;;;5051956;28;20431;-54
2021/07/15 08:33:00;;;;;;;4.80;2.67;;;24.30;99.60;;;;;;5051718;28;20430;-55
2021/07/15 08:35:27;;;;;;;6.50;2.70;;;24.30;99.80;;;;;;5051395;28;20919;-56
2021/07/15 08:37:55;;;;;;;3.87;2.57;;;23.70;99.70;;;;;;5033646;28;20474;-55
2021/07/15 08:40:21;;;;;;;4.90;2.30;;;24.40;99.90;;;;;;5051347;28;20427;-55
2021/07/15 08:42:48;;;;;;;5.43;2.90;;;24.40;99.90;;;;;;5051336;28;20575;-54
2021/07/15 08:45:15;;;;;;;4.00;3.00;;;24.50;99.90;;;;;;5051586;28;20438;-55
2021/07/15 08:47:43;;;;;;;2.90;2.40;;;24.50;99.90;;;;;;5051313;28;20487;-55
2021/07/15 08:50:16;;;;;;;3.70;2.53;;;24.60;99.90;;;;;;5051104;28;20436;-54
2021/07/15 08:52:45;;;;;;;2.40;2.07;;;24.70;99.60;;;;;;5051540;28;20436;-54
2021/07/15 08:55:21;;;;;;;3.90;2.10;;;24.70;99.60;;;;;;5050957;28;20946;-53
2021/07/15 08:57:47;;;;;;;2.47;2.27;;;24.80;99.50;;;;;;5050989;28;20473;-53
2021/07/15 09:00:16;;;;;;;3.17;2.50;;;24.90;99.30;;;;;;5051005;28;20740;-52
2021/07/15 09:02:44;;;;;;;2.60;2.13;;;24.90;99.00;;;;;;5051203;28;20664;-52
2021/07/15 09:05:13;;;;;;;2.87;2.07;;;24.90;98.70;;;;;;5051062;28;20602;-53
2021/07/15 09:07:41;;;;;;;6.63;2.43;;;25.00;98.60;;;;;;5050704;28;20573;-53
2021/07/15 09:10:10;;;;;;;4.80;2.30;;;25.10;98.40;;;;;;5050864;28;20431;-53
2021/07/15 09:12:37;;;;;;;3.70;2.20;;;25.30;98.50;;;;;;5032498;28;20451;-52
2021/07/15 09:15:07;;;;;;;2.57;2.13;;;25.40;98.20;;;;;;5055861;28;20450;-53
2021/07/15 09:17:35;;;;;;;2.30;2.10;;;25.50;98.00;;;;;;5055142;28;20466;-53
2021/07/15 09:20:05;;;;;;;3.00;2.10;;;25.60;97.90;;;;;;5068299;28;20441;-53
2021/07/15 09:22:33;;;;;;;2.10;1.87;;;25.60;97.30;;;;;;5066586;28;20449;-53
2021/07/15 09:25:01;;;;;;;6.37;2.47;;;25.60;96.70;;;;;;5050058;28;20534;-53
2021/07/15 09:27:29;;;;;;;2.77;1.97;;;25.50;96.60;;;;;;5049666;28;20458;-55
2021/07/15 09:30:10;;;;;;;5.87;2.47;;;25.50;96.60;;;;;;5050225;28;20983;-54
2021/07/15 09:32:50;;;;;;;4.83;2.43;;;25.40;96.80;;;;;;5066233;28;20521;-54
2021/07/15 09:35:26;;;;;;;3.77;2.70;;;25.40;96.50;;;;;;5059715;28;20438;-54
2021/07/15 09:37:55;;;;;;;2.83;1.80;;;25.30;96.40;;;;;;5060664;28;20470;-53
2021/07/15 09:40:38;;;;;;;3.23;2.07;;;25.40;96.40;;;;;;5050306;28;20526;-54
2021/07/15 09:43:13;;;;;;;5.20;2.47;;;25.40;96.10;;;;;;5050044;28;20801;-54
2021/07/15 09:45:39;;;;;;;3.23;2.10;;;25.40;96.20;;;;;;5050365;28;20449;-54
2021/07/15 09:48:14;;;;;;;3.37;2.40;;;25.40;96.20;;;;;;5049643;28;20558;-53
2021/07/15 09:50:40;;;;;;;5.40;2.63;;;25.50;96.00;;;;;;5059971;28;20433;-53
2021/07/15 09:53:21;;;;;;;2.93;2.47;;;25.60;95.90;;;;;;5070156;28;20531;-53
2021/07/15 09:55:49;;;;;;;4.93;2.43;;;25.60;95.80;;;;;;5070234;28;20429;-53
2021/07/15 09:58:16;;;;;;;3.80;2.07;;;25.70;95.60;;;;;;5069603;28;20804;-54
2021/07/15 10:00:45;;;;;;;2.73;2.23;;;25.80;95.60;;;;;;5070300;28;20437;-53
2021/07/15 10:03:14;;;;;;;2.73;2.40;;;25.80;95.40;;;;;;5070195;28;20438;-53
2021/07/15 10:05:51;;;;;;;2.60;1.87;;;25.80;95.10;;;;;;5070184;28;20449;-54
2021/07/15 10:08:26;;;;;;;2.90;2.60;;;25.70;94.60;;;;;;5069658;28;20488;-54
2021/07/15 10:10:53;;;;;;;2.97;2.67;;;25.90;95.00;;;;;;5070038;28;20433;-54
2021/07/15 10:13:22;;;;;;;5.30;3.10;;;25.90;94.80;;;;;;5070311;28;20443;-54
2021/07/15 10:15:50;;;;;;;3.43;3.13;;;26.00;94.70;;;;;;5070557;28;20927;-54
2021/07/15 10:18:37;;;;;;;4.17;2.63;;;26.00;94.60;;;;;;5070049;28;20457;-54
2021/07/15 10:21:04;;;;;;;5.50;3.10;;;26.00;94.40;;;;;;5070233;28;20529;-54
2021/07/15 10:23:34;;;;;;;4.80;3.30;;;26.10;94.50;;;;;;5069710;28;20932;-53
2021/07/15 10:26:02;;;;;;;4.60;2.80;;;26.20;94.30;;;;;;5072569;28;20429;-54
2021/07/15 10:28:29;;;;;;;3.40;2.80;;;26.30;94.30;;;;;;5072938;28;20496;-54
2021/07/15 10:30:59;;;;;;;3.90;3.40;;;26.30;93.90;;;;;;5073748;28;20452;-55
2021/07/15 10:33:27;;;;;;;3.20;2.90;;;26.40;93.70;;;;;;5073922;28;20438;-54
2021/07/15 10:35:54;;;;;;;3.40;3.10;;;26.40;93.80;;;;;;5073509;28;20430;-54
2021/07/15 10:38:22;;;;;;;3.03;2.60;;;26.40;93.70;;;;;;5073275;28;20564;-54
2021/07/15 10:40:53;;;;;;;7.20;3.30;;;26.40;93.60;;;;;;5073544;28;20430;-54
2021/07/15 10:43:22;;;;;;;3.00;2.80;;;26.50;93.50;;;;;;5074113;28;20438;-54
2021/07/15 10:45:49;;;;;;;5.17;3.27;;;26.50;93.60;;;;;;5073824;28;20433;-54
2021/07/15 10:48:16;;;;;;;3.60;2.87;;;26.50;93.50;;;;;;5055112;28;20477;-54
2021/07/15 10:50:45;;;;;;;4.70;3.07;;;26.50;93.40;;;;;;5073324;28;20434;-54
2021/07/15 10:53:15;;;;;;;3.00;2.80;;;26.60;93.40;;;;;;5073208;28;20512;-54
2021/07/15 10:55:42;;;;;;;3.43;2.90;;;26.60;93.40;;;;;;5072966;28;20474;-54
2021/07/15 10:58:11;;;;;;;4.20;3.07;;;26.60;93.20;;;;;;5089211;22;20997;-52
2021/07/15 11:00:49;;;;;;;3.67;2.70;;;26.70;93.20;;;;;;5054188;28;20437;-52
2021/07/15 11:03:21;;;;;;;4.00;2.80;;;26.80;93.10;;;;;;5053897;28;20441;-52
2021/07/15 11:05:53;;;;;;;3.40;2.30;;;26.90;92.70;;;;;;5054052;28;20428;-52
2021/07/15 11:08:40;;;;;;;5.37;2.90;;;26.90;92.60;;;;;;5053150;28;20474;-52
2021/07/15 11:11:07;;;;;;;3.60;2.90;;;27.00;92.70;;;;;;5053638;28;20442;-52
2021/07/15 11:13:35;;;;;;;3.40;3.10;;;27.10;92.50;;;;;;5053423;28;20430;-52
2021/07/15 11:16:04;;;;;;;3.70;3.40;;;27.20;92.00;;;;;;5053463;28;20444;-52
2021/07/15 11:18:50;;;;;;;9.13;2.90;;;27.30;92.00;;;;;;5053060;28;20468;-52
2021/07/15 11:21:36;;;;;;;4.03;3.20;;;27.40;91.50;;;;;;5053424;28;20931;-55
2021/07/15 11:24:52;;;;;;;3.50;3.20;;;27.40;91.70;;;;;;5053107;28;20439;-52
2021/07/15 11:27:36;;;;;;;4.20;3.80;;;27.50;91.10;;;;;;5053340;28;20525;-51
2021/07/15 11:30:06;;;;;;;3.70;2.77;;;27.50;91.10;;;;;;5053124;28;20476;-52
2021/07/15 11:32:33;;;;;;;3.97;3.57;;;27.50;91.20;;;;;;5053372;28;20437;-52
2021/07/15 11:34:59;;;;;;;3.97;3.57;;;27.60;91.20;;;;;;5053476;28;20512;-52
2021/07/15 11:37:37;;;;;;;4.20;3.83;;;27.50;91.00;;;;;;5052481;28;20445;-52
2021/07/15 11:40:06;;;;;;;4.60;3.60;;;27.50;90.90;;;;;;5053023;28;20453;-51
2021/07/15 11:42:35;;;;;;;6.63;4.00;;;27.50;90.90;;;;;;5053184;28;20434;-52
2021/07/15 11:45:05;;;;;;;4.30;4.00;;;27.50;91.00;;;;;;5053449;28;20963;-51
2021/07/15 11:47:49;;;;;;;4.10;3.70;;;27.50;90.80;;;;;;5053247;28;20469;-52
2021/07/15 11:50:33;;;;;;;3.73;3.33;;;27.60;90.40;;;;;;5052668;28;20486;-51
2021/07/15 11:53:16;;;;;;;4.00;3.43;;;27.60;90.70;;;;;;5052710;28;20430;-51
2021/07/15 11:55:42;;;;;;;5.93;3.70;;;27.80;90.30;;;;;;5053168;28;20434;-52
2021/07/15 11:58:29;;;;;;;6.80;3.50;;;27.80;90.40;;;;;;5052412;28;20462;-52
2021/07/15 12:01:17;;;;;;;4.07;3.70;;;27.80;90.40;;;;;;5052996;28;20454;-51
2021/07/15 12:03:57;;;;;;;4.40;3.50;;;27.90;89.80;;;;;;5052797;28;20426;-52
2021/07/15 12:06:24;;;;;;;3.60;3.30;;;28.10;89.70;;;;;;5052807;28;20438;-52
2021/07/15 12:08:50;;;;;;;5.97;3.20;;;28.00;90.10;;;;;;5052457;28;21005;-51
2021/07/15 12:11:20;;;;;;;3.50;3.03;;;28.00;90.10;;;;;;5052706;28;20443;-53
2021/07/15 12:13:50;;;;;;;4.63;3.53;;;28.00;89.40;;;;;;5052729;28;20514;-53
2021/07/15 12:16:20;;;;;;;3.47;3.17;;;28.10;89.50;;;;;;5052691;28;20480;-53
2021/07/15 12:18:47;;;;;;;3.37;3.07;;;28.10;88.60;;;;;;5051816;28;20458;-53
2021/07/15 12:21:17;;;;;;;3.67;2.87;;;28.20;88.60;;;;;;5052401;28;20441;-54
2021/07/15 12:23:44;;;;;;;5.33;3.57;;;28.20;88.10;;;;;;5052426;28;20576;-54
2021/07/15 12:26:12;;;;;;;4.53;3.30;;;28.30;87.90;;;;;;5052435;28;20800;-53
2021/07/15 12:28:44;;;;;;;3.27;2.97;;;28.30;88.10;;;;;;5051475;28;20528;-53
2021/07/15 12:31:12;;;;;;;3.40;3.07;;;28.20;87.60;;;;;;5052047;28;21004;-52
2021/07/15 12:33:41;;;;;;;4.03;3.27;;;28.10;87.00;;;;;;5034152;28;20482;-52
2021/07/15 12:36:10;;;;;;;3.10;2.60;;;28.10;87.00;;;;;;5052210;28;20563;-52
2021/07/15 12:38:37;;;;;;;3.67;3.00;;;28.00;86.80;;;;;;5051849;28;20450;-52
2021/07/15 12:41:11;;;;;;;3.20;2.90;;;28.00;86.90;;;;;;5051640;28;20440;-52
2021/07/15 12:43:45;;;;;;;4.00;2.80;;;27.90;87.60;;;;;;5052034;28;20500;-53
2021/07/15 12:46:12;;;;;;;5.60;2.60;;;27.90;87.20;;;;;;5052297;28;20430;-52
2021/07/15 12:48:42;;;;;;;3.17;2.63;;;27.80;87.40;;;;;;5050456;28;20477;-53
2021/07/15 12:51:09;;;;;;;4.27;2.90;;;27.70;87.30;;;;;;5052290;28;20438;-52
2021/07/15 12:53:38;;;;;;;3.80;3.00;;;27.60;87.50;;;;;;5051840;28;20438;-52
2021/07/15 12:56:05;;;;;;;3.67;3.27;;;27.60;87.80;;;;;;5051684;28;20437;-52